Time;durP1;ratioP1;P1;durP2;ratioP2;P2;SDS_P1;SDS_P2;PMS_P1;PMS_P2;Temp;Humidity;BMP_temperature;BMP_pressure;BME280_temperature;BME280_humidity;BME280_pressure;Samples;Min_cycle;Max_cycle;Signal;HPM_P1;HPM_P2
2022/01/07 00:01:03;;;;;;;25.05;12.20;;;;;;;;;;4953926;29;20121;-68
2022/01/07 00:03:30;;;;;;;24.13;12.02;;;;;;;;;;4939416;28;20526;-68
2022/01/07 00:05:58;;;;;;;22.48;12.27;;;;;;;;;;4934668;29;20122;-69
2022/01/07 00:08:29;;;;;;;21.50;11.65;;;;;;;;;;4934581;29;20059;-68
2022/01/07 00:10:55;;;;;;;21.58;11.93;;;;;;;;;;4934625;29;20052;-68
2022/01/07 00:13:22;;;;;;;21.05;11.18;;;;;;;;;;4934374;29;20115;-68
2022/01/07 00:15:49;;;;;;;22.98;11.43;;;;;;;;;;4934514;29;20048;-68
2022/01/07 00:18:16;;;;;;;20.02;10.73;;;;;;;;;;4951126;28;20489;-68
2022/01/07 00:20:43;;;;;;;17.48;10.32;;;;;;;;;;4954743;28;20055;-68
2022/01/07 00:23:10;;;;;;;20.15;11.75;;;;;;;;;;4937569;28;20098;-68
2022/01/07 00:25:36;;;;;;;18.83;10.48;;;;;;;;;;4954731;28;20078;-68
2022/01/07 00:28:04;;;;;;;22.65;11.95;;;;;;;;;;4953216;28;20494;-68
2022/01/07 00:30:30;;;;;;;21.30;11.43;;;;;;;;;;4937703;29;20051;-68
2022/01/07 00:32:57;;;;;;;23.60;10.93;;;;;;;;;;4937474;28;20102;-68
2022/01/07 00:35:24;;;;;;;21.38;11.02;;;;;;;;;;4935354;29;20106;-68
2022/01/07 00:37:50;;;;;;;19.58;10.38;;;;;;;;;;4933949;29;20051;-68
2022/01/07 00:40:20;;;;;;;19.00;11.13;;;;;;;;;;4935264;29;20471;-68
2022/01/07 00:42:49;;;;;;;23.23;10.45;;;;;;;;;;4933995;29;20106;-68
2022/01/07 00:45:15;;;;;;;18.50;9.90;;;;;;;;;;4941759;28;20110;-68
2022/01/07 00:47:42;;;;;;;17.38;10.32;;;;;;;;;;4952702;28;20403;-68
2022/01/07 00:50:09;;;;;;;19.10;9.98;;;;;;;;;;4954088;28;20055;-68
2022/01/07 00:52:36;;;;;;;16.92;9.88;;;;;;;;;;4953141;28;20465;-68
2022/01/07 00:55:03;;;;;;;19.25;9.82;;;;;;;;;;4952910;28;20043;-68
2022/01/07 00:57:30;;;;;;;22.55;10.73;;;;;;;;;;4953028;28;20102;-68
2022/01/07 00:59:57;;;;;;;18.52;11.07;;;;;;;;;;4941145;28;20052;-68
2022/01/07 01:02:23;;;;;;;22.13;10.25;;;;;;;;;;4935162;29;20079;-68
2022/01/07 01:04:50;;;;;;;16.65;11.13;;;;;;;;;;4933679;29;20072;-68
2022/01/07 01:07:17;;;;;;;18.00;10.70;;;;;;;;;;4934887;29;20484;-68
2022/01/07 01:09:43;;;;;;;18.38;11.25;;;;;;;;;;4933596;29;20107;-68
2022/01/07 01:12:11;;;;;;;24.00;11.52;;;;;;;;;;4936444;29;20454;-68
2022/01/07 01:14:38;;;;;;;21.48;10.95;;;;;;;;;;4936935;29;20047;-68
2022/01/07 01:17:05;;;;;;;18.23;10.95;;;;;;;;;;4952620;29;20051;-68
2022/01/07 01:19:31;;;;;;;24.98;11.77;;;;;;;;;;4936975;29;20418;-68
2022/01/07 01:21:58;;;;;;;21.15;10.75;;;;;;;;;;4953916;28;20047;-68
2022/01/07 01:24:25;;;;;;;25.73;11.43;;;;;;;;;;4952610;28;20498;-68
2022/01/07 01:26:51;;;;;;;23.27;11.50;;;;;;;;;;4952601;28;20091;-68
2022/01/07 01:29:20;;;;;;;18.58;10.07;;;;;;;;;;4952417;28;20083;-68
2022/01/07 01:31:47;;;;;;;18.27;10.73;;;;;;;;;;4952630;28;20129;-68
2022/01/07 01:34:13;;;;;;;20.52;10.73;;;;;;;;;;4953480;28;20052;-68
2022/01/07 01:36:41;;;;;;;19.02;10.25;;;;;;;;;;4936659;29;20051;-68
2022/01/07 01:39:08;;;;;;;17.88;10.43;;;;;;;;;;4945814;28;20059;-68
2022/01/07 01:41:34;;;;;;;21.15;10.77;;;;;;;;;;4933196;29;20404;-68
2022/01/07 01:44:01;;;;;;;17.75;10.23;;;;;;;;;;4933144;29;20047;-68
2022/01/07 01:46:28;;;;;;;20.67;10.05;;;;;;;;;;4934532;29;20048;-68
2022/01/07 01:48:54;;;;;;;19.73;10.23;;;;;;;;;;4934225;29;20185;-68
2022/01/07 01:51:21;;;;;;;16.38;9.73;;;;;;;;;;4934406;29;20051;-68
2022/01/07 01:53:47;;;;;;;17.27;9.05;;;;;;;;;;4944603;29;20051;-68
2022/01/07 01:56:14;;;;;;;14.52;8.70;;;;;;;;;;4952176;29;20102;-68
2022/01/07 01:58:41;;;;;;;20.35;9.57;;;;;;;;;;4952283;28;20055;-68
2022/01/07 02:01:08;;;;;;;16.92;9.57;;;;;;;;;;4938777;29;20129;-68
2022/01/07 02:03:34;;;;;;;18.77;9.45;;;;;;;;;;4956043;29;20055;-68
2022/01/07 02:06:01;;;;;;;13.70;8.50;;;;;;;;;;4949919;28;20095;-68
2022/01/07 02:08:29;;;;;;;15.02;9.43;;;;;;;;;;4937915;29;20131;-68
2022/01/07 02:11:00;;;;;;;15.52;8.43;;;;;;;;;;4936781;29;20431;-68
2022/01/07 02:13:26;;;;;;;19.60;9.65;;;;;;;;;;4936630;29;20094;-68
2022/01/07 02:15:53;;;;;;;12.52;8.63;;;;;;;;;;4937928;29;20107;-68
2022/01/07 02:18:19;;;;;;;16.00;10.00;;;;;;;;;;4937693;29;20051;-68
2022/01/07 02:20:47;;;;;;;13.88;9.07;;;;;;;;;;4936930;29;20587;-68
2022/01/07 02:23:17;;;;;;;15.30;9.05;;;;;;;;;;4937547;29;20079;-68
2022/01/07 02:25:44;;;;;;;16.05;9.85;;;;;;;;;;4936444;29;20091;-68
2022/01/07 02:28:12;;;;;;;13.65;9.23;;;;;;;;;;4936425;29;20103;-68
2022/01/07 02:30:39;;;;;;;20.17;10.05;;;;;;;;;;4937813;29;20098;-68
2022/01/07 02:33:06;;;;;;;17.80;10.10;;;;;;;;;;4937248;29;20110;-68
2022/01/07 02:35:33;;;;;;;23.50;10.05;;;;;;;;;;4937486;29;20056;-68
2022/01/07 02:38:02;;;;;;;16.80;9.98;;;;;;;;;;4936198;29;20056;-68
2022/01/07 02:40:29;;;;;;;22.13;9.55;;;;;;;;;;4971804;23;20106;-70
2022/01/07 02:42:55;;;;;;;22.13;10.75;;;;;;;;;;4956468;28;20055;-70
2022/01/07 02:45:22;;;;;;;17.55;9.52;;;;;;;;;;4956262;28;20051;-70
2022/01/07 02:50:20;;;;;;;18.60;10.10;;;;;;;;;;4955750;28;20055;-69
2022/01/07 02:52:47;;;;;;;19.20;10.05;;;;;;;;;;4955222;29;20398;-69
2022/01/07 02:55:14;;;;;;;14.80;8.63;;;;;;;;;;4956240;28;20051;-70
2022/01/07 02:57:40;;;;;;;16.23;9.40;;;;;;;;;;4956463;28;20047;-70
2022/01/07 03:00:08;;;;;;;15.70;10.07;;;;;;;;;;4955430;28;20461;-70
2022/01/07 03:02:34;;;;;;;17.00;9.88;;;;;;;;;;4956006;28;20055;-69
2022/01/07 03:05:02;;;;;;;19.00;9.98;;;;;;;;;;4954915;29;20399;-70
2022/01/07 03:07:29;;;;;;;15.98;9.65;;;;;;;;;;4956024;28;20577;-68
2022/01/07 03:09:56;;;;;;;19.02;9.85;;;;;;;;;;4956003;28;20055;-69
2022/01/07 03:12:22;;;;;;;17.88;9.65;;;;;;;;;;4954686;28;20047;-69
2022/01/07 03:14:49;;;;;;;17.55;9.02;;;;;;;;;;4955989;28;20055;-70
2022/01/07 03:17:16;;;;;;;16.17;10.10;;;;;;;;;;4955880;28;20634;-70
2022/01/07 03:19:44;;;;;;;15.43;9.00;;;;;;;;;;4955760;29;20576;-70
2022/01/07 03:22:10;;;;;;;20.38;9.63;;;;;;;;;;4955938;29;20047;-70
2022/01/07 03:24:40;;;;;;;16.67;9.73;;;;;;;;;;4955585;28;20430;-69
2022/01/07 03:27:07;;;;;;;20.95;11.20;;;;;;;;;;4955356;28;20098;-70
2022/01/07 03:29:33;;;;;;;15.70;9.38;;;;;;;;;;4955706;28;20460;-70
2022/01/07 03:32:01;;;;;;;14.73;9.43;;;;;;;;;;4955734;28;20430;-69
2022/01/07 03:34:28;;;;;;;16.85;9.25;;;;;;;;;;4955707;28;20051;-70
2022/01/07 03:36:54;;;;;;;14.68;9.25;;;;;;;;;;4954514;29;20047;-69
2022/01/07 03:39:21;;;;;;;15.68;9.48;;;;;;;;;;4955359;28;20052;-69
2022/01/07 03:41:47;;;;;;;15.98;7.95;;;;;;;;;;4942739;29;20114;-69
2022/01/07 03:44:14;;;;;;;19.83;9.45;;;;;;;;;;4936161;29;20558;-70
2022/01/07 03:46:40;;;;;;;15.00;9.13;;;;;;;;;;4936259;29;20095;-70
2022/01/07 03:49:07;;;;;;;16.08;8.05;;;;;;;;;;4936097;29;20051;-70
2022/01/07 03:51:34;;;;;;;13.82;8.80;;;;;;;;;;4936200;29;20051;-69
2022/01/07 03:54:00;;;;;;;12.05;8.30;;;;;;;;;;4935998;29;20492;-69
2022/01/07 03:56:27;;;;;;;18.27;9.18;;;;;;;;;;4936231;29;20481;-70
2022/01/07 03:58:53;;;;;;;15.65;8.95;;;;;;;;;;4935846;29;20107;-69
2022/01/07 04:01:20;;;;;;;19.63;8.23;;;;;;;;;;4936078;29;20051;-69
2022/01/07 04:03:47;;;;;;;17.65;8.60;;;;;;;;;;4935833;29;20522;-69
2022/01/07 04:06:17;;;;;;;14.80;7.85;;;;;;;;;;4935788;29;20106;-69
2022/01/07 04:08:44;;;;;;;16.08;8.63;;;;;;;;;;4939817;29;20051;-68
2022/01/07 04:11:10;;;;;;;15.00;8.35;;;;;;;;;;4954870;29;20051;-70
2022/01/07 04:13:37;;;;;;;13.07;7.30;;;;;;;;;;4955102;29;20051;-69
2022/01/07 04:16:04;;;;;;;18.20;8.88;;;;;;;;;;4954851;29;20051;-70
2022/01/07 04:18:30;;;;;;;11.90;7.65;;;;;;;;;;4954813;28;20569;-69
2022/01/07 04:20:57;;;;;;;13.35;8.00;;;;;;;;;;4954742;28;20106;-69
2022/01/07 04:23:24;;;;;;;11.52;7.72;;;;;;;;;;4944468;28;20059;-70
2022/01/07 04:25:50;;;;;;;13.68;8.25;;;;;;;;;;4935536;29;20052;-69
2022/01/07 04:28:17;;;;;;;19.98;7.25;;;;;;;;;;4935377;29;20083;-69
2022/01/07 04:30:44;;;;;;;13.40;7.05;;;;;;;;;;4935523;29;20051;-69
2022/01/07 04:33:13;;;;;;;12.07;6.93;;;;;;;;;;4935250;29;20059;-70
2022/01/07 04:35:41;;;;;;;13.90;7.03;;;;;;;;;;4935451;29;20471;-70
2022/01/07 04:38:08;;;;;;;15.38;7.53;;;;;;;;;;4949473;29;20157;-69
2022/01/07 04:40:35;;;;;;;15.07;7.20;;;;;;;;;;4953207;29;20055;-69
2022/01/07 04:43:03;;;;;;;14.15;8.02;;;;;;;;;;4954260;28;20121;-70
2022/01/07 04:45:30;;;;;;;12.75;7.45;;;;;;;;;;4954383;28;20098;-69
2022/01/07 04:47:57;;;;;;;14.55;7.75;;;;;;;;;;4954205;28;20470;-69
2022/01/07 04:50:24;;;;;;;15.55;7.78;;;;;;;;;;4952493;29;20568;-70
2022/01/07 04:52:50;;;;;;;17.55;7.97;;;;;;;;;;4953133;29;20051;-69
2022/01/07 04:55:23;;;;;;;9.45;7.28;;;;;;;;;;4954213;28;20692;-68
2022/01/07 04:57:50;;;;;;;9.98;6.57;;;;;;;;;;4954368;28;20051;-69
2022/01/07 05:00:18;;;;;;;16.33;7.88;;;;;;;;;;4953980;28;20054;-70
2022/01/07 05:02:44;;;;;;;16.80;8.35;;;;;;;;;;4954115;28;20439;-69
2022/01/07 05:05:11;;;;;;;10.98;7.32;;;;;;;;;;4953978;28;20061;-69
2022/01/07 05:07:38;;;;;;;12.13;7.47;;;;;;;;;;4953936;28;20157;-69
2022/01/07 05:10:10;;;;;;;11.35;7.07;;;;;;;;;;4953857;28;20051;-70
2022/01/07 05:12:37;;;;;;;12.15;7.28;;;;;;;;;;4954134;28;20055;-70
2022/01/07 05:15:05;;;;;;;11.80;6.70;;;;;;;;;;4953905;28;20047;-70
2022/01/07 05:17:32;;;;;;;11.68;6.97;;;;;;;;;;4953819;29;20052;-69
2022/01/07 05:19:59;;;;;;;11.95;7.45;;;;;;;;;;4958395;28;20050;-69
2022/01/07 05:22:26;;;;;;;13.07;7.63;;;;;;;;;;4957044;28;20051;-68
2022/01/07 05:24:52;;;;;;;15.65;8.43;;;;;;;;;;4952425;29;20102;-69
2022/01/07 05:27:19;;;;;;;16.77;7.72;;;;;;;;;;4950838;29;20106;-69
2022/01/07 05:29:46;;;;;;;14.82;8.00;;;;;;;;;;4934577;29;20118;-70
2022/01/07 05:32:12;;;;;;;12.43;7.38;;;;;;;;;;4934525;29;20059;-69
2022/01/07 05:34:39;;;;;;;12.90;8.05;;;;;;;;;;4934380;29;20059;-69
2022/01/07 05:37:07;;;;;;;15.85;7.82;;;;;;;;;;4934542;29;20047;-69
2022/01/07 05:39:33;;;;;;;14.15;7.82;;;;;;;;;;4934259;29;20051;-70
2022/01/07 05:42:01;;;;;;;14.05;8.68;;;;;;;;;;4934388;29;20059;-69
2022/01/07 05:44:28;;;;;;;15.48;8.02;;;;;;;;;;4934486;29;20056;-70
2022/01/07 05:46:55;;;;;;;13.75;7.72;;;;;;;;;;4934458;29;20044;-70
2022/01/07 05:49:22;;;;;;;13.15;8.25;;;;;;;;;;4934513;29;20103;-69
2022/01/07 05:51:48;;;;;;;13.55;8.18;;;;;;;;;;4934494;29;20463;-69
2022/01/07 05:54:15;;;;;;;13.90;7.95;;;;;;;;;;4934260;29;20052;-70
2022/01/07 05:56:42;;;;;;;14.70;7.38;;;;;;;;;;4934482;29;20060;-70
2022/01/07 05:59:08;;;;;;;15.90;8.25;;;;;;;;;;4934152;29;20051;-69
2022/01/07 06:01:35;;;;;;;16.60;8.93;;;;;;;;;;4934440;29;20582;-69
2022/01/07 06:04:02;;;;;;;12.68;7.93;;;;;;;;;;4951752;29;20284;-70
2022/01/07 06:06:28;;;;;;;16.15;8.60;;;;;;;;;;4953449;29;20110;-70
2022/01/07 06:08:55;;;;;;;15.55;8.30;;;;;;;;;;4953203;29;20464;-69
2022/01/07 06:11:22;;;;;;;15.45;9.43;;;;;;;;;;4953492;29;20047;-69
2022/01/07 06:13:48;;;;;;;17.33;9.20;;;;;;;;;;4950225;29;20107;-70
2022/01/07 06:16:15;;;;;;;16.77;9.20;;;;;;;;;;4934203;29;20055;-70
2022/01/07 06:18:52;;;;;;;13.48;8.35;;;;;;;;;;4934138;29;20059;-69
2022/01/07 06:21:19;;;;;;;13.40;8.60;;;;;;;;;;4934344;29;20546;-70
2022/01/07 06:23:46;;;;;;;14.65;8.18;;;;;;;;;;4934449;29;20060;-69
2022/01/07 06:26:12;;;;;;;14.45;9.10;;;;;;;;;;4934175;29;20099;-70
2022/01/07 06:28:39;;;;;;;14.93;8.45;;;;;;;;;;4947986;29;20051;-70
2022/01/07 06:31:06;;;;;;;14.27;8.75;;;;;;;;;;4965130;28;20083;-69
2022/01/07 06:33:32;;;;;;;14.82;8.07;;;;;;;;;;4970608;29;20082;-69
2022/01/07 06:35:59;;;;;;;17.63;9.48;;;;;;;;;;4966721;28;20055;-69
2022/01/07 06:38:25;;;;;;;17.35;9.00;;;;;;;;;;4964428;29;20062;-69
2022/01/07 06:40:52;;;;;;;15.98;8.88;;;;;;;;;;4957818;29;20072;-69
2022/01/07 06:43:19;;;;;;;18.65;9.43;;;;;;;;;;4924111;29;20064;-69
2022/01/07 06:45:45;;;;;;;17.23;9.60;;;;;;;;;;4915113;29;20048;-70
2022/01/07 06:48:12;;;;;;;14.25;10.35;;;;;;;;;;4918091;29;20135;-68
2022/01/07 06:50:39;;;;;;;16.73;9.20;;;;;;;;;;4918410;29;20108;-70
2022/01/07 06:53:05;;;;;;;17.42;9.18;;;;;;;;;;4915655;29;20119;-69
2022/01/07 06:55:52;;;;;;;17.30;9.45;;;;;;;;;;4927329;29;20082;-69
2022/01/07 06:58:18;;;;;;;15.35;9.20;;;;;;;;;;4926092;29;20028;-68
2022/01/07 07:00:45;;;;;;;12.98;8.60;;;;;;;;;;4950039;29;20092;-68
2022/01/07 07:03:12;;;;;;;14.20;8.75;;;;;;;;;;4945250;29;20097;-66
2022/01/07 07:05:38;;;;;;;18.63;9.40;;;;;;;;;;4945172;29;20068;-67
2022/01/07 07:08:05;;;;;;;15.45;8.45;;;;;;;;;;4944142;29;20056;-67
2022/01/07 07:10:31;;;;;;;15.70;9.10;;;;;;;;;;4946708;29;20047;-66
2022/01/07 07:12:58;;;;;;;15.07;9.13;;;;;;;;;;4946549;29;20511;-68
2022/01/07 07:15:25;;;;;;;17.63;9.57;;;;;;;;;;4923473;29;20107;-68
2022/01/07 07:17:51;;;;;;;18.08;9.50;;;;;;;;;;4921283;29;20048;-68
2022/01/07 07:20:18;;;;;;;18.77;8.93;;;;;;;;;;4922502;29;20060;-69
2022/01/07 07:22:45;;;;;;;15.68;7.82;;;;;;;;;;4920536;29;20115;-67
2022/01/07 07:25:12;;;;;;;15.52;8.30;;;;;;;;;;4923749;29;20047;-70
2022/01/07 07:27:40;;;;;;;13.52;7.57;;;;;;;;;;4921286;29;20048;-66
2022/01/07 07:30:08;;;;;;;16.30;9.02;;;;;;;;;;4921530;29;20538;-67
2022/01/07 07:32:36;;;;;;;20.35;9.35;;;;;;;;;;4924279;29;20102;-67
2022/01/07 07:36:26;;;;;;;13.98;8.80;;;;;;;;;;4920502;29;20408;-67
2022/01/07 07:37:50;;;;;;;13.98;8.50;;;;;;;;;;4923458;29;20234;-67
2022/01/07 07:40:17;;;;;;;14.07;8.25;;;;;;;;;;4921163;29;20092;-67
2022/01/07 07:42:43;;;;;;;16.10;7.35;;;;;;;;;;4921229;29;20115;-65
2022/01/07 07:45:13;;;;;;;12.85;7.70;;;;;;;;;;4921718;29;20103;-68
2022/01/07 07:47:40;;;;;;;11.82;7.05;;;;;;;;;;4919959;29;20048;-67
2022/01/07 07:50:12;;;;;;;;;;;;;;;;;;4925966;29;20077;-68
2022/01/07 07:52:39;;;;;;;12.98;7.65;;;;;;;;;;4920390;29;19971;-68
2022/01/07 07:55:06;;;;;;;12.10;7.13;;;;;;;;;;4921995;29;20119;-68
2022/01/07 07:57:32;;;;;;;11.07;6.15;;;;;;;;;;4919487;29;20104;-66
2022/01/07 07:59:59;;;;;;;11.52;6.90;;;;;;;;;;4921461;29;20479;-67
2022/01/07 08:02:30;;;;;;;10.13;6.60;;;;;;;;;;4919957;29;20116;-67
2022/01/07 08:04:57;;;;;;;13.52;7.63;;;;;;;;;;4922553;29;20058;-66
2022/01/07 08:07:24;;;;;;;11.85;6.47;;;;;;;;;;4921271;29;20044;-67
2022/01/07 08:09:52;;;;;;;13.25;7.55;;;;;;;;;;4920530;29;20099;-66
2022/01/07 08:12:28;;;;;;;15.23;7.60;;;;;;;;;;4921947;29;20578;-66
2022/01/07 08:17:41;;;;;;;13.00;6.30;;;;;;;;;;4922915;29;20051;-67
2022/01/07 08:20:07;;;;;;;12.80;7.07;;;;;;;;;;4922666;29;20051;-66
2022/01/07 08:22:34;;;;;;;13.30;7.22;;;;;;;;;;4919732;29;20056;-67
2022/01/07 08:25:01;;;;;;;9.73;5.85;;;;;;;;;;4924626;29;20073;-66
2022/01/07 08:27:28;;;;;;;10.90;6.30;;;;;;;;;;4922028;29;20052;-66
2022/01/07 08:30:20;;;;;;;10.98;6.00;;;;;;;;;;4919198;29;20051;-72
2022/01/07 08:35:35;;;;;;;12.45;7.13;;;;;;;;;;4923032;29;20044;-66
2022/01/07 08:38:02;;;;;;;12.27;7.60;;;;;;;;;;4923647;29;20039;-66
2022/01/07 08:40:29;;;;;;;10.98;6.43;;;;;;;;;;4920855;29;20055;-67
2022/01/07 08:42:55;;;;;;;12.90;7.72;;;;;;;;;;4919468;29;20056;-65
2022/01/07 08:45:24;;;;;;;12.85;6.47;;;;;;;;;;4923800;29;20463;-66
2022/01/07 08:47:50;;;;;;;10.60;6.68;;;;;;;;;;4920881;29;20095;-67
2022/01/07 08:50:17;;;;;;;11.75;7.18;;;;;;;;;;4921786;29;20071;-67
2022/01/07 08:52:44;;;;;;;18.35;8.93;;;;;;;;;;4923678;29;20051;-74
2022/01/07 08:55:11;;;;;;;12.40;7.28;;;;;;;;;;4923537;29;20055;-70
2022/01/07 08:57:38;;;;;;;13.38;7.38;;;;;;;;;;4921850;29;20107;-70
2022/01/07 09:00:06;;;;;;;15.20;6.80;;;;;;;;;;4935994;29;20035;-72
2022/01/07 09:02:32;;;;;;;11.15;6.85;;;;;;;;;;4938620;29;20554;-73
2022/01/07 09:04:59;;;;;;;11.23;6.38;;;;;;;;;;4952171;29;20039;-70
2022/01/07 09:07:26;;;;;;;11.15;6.88;;;;;;;;;;4946524;29;20047;-74
2022/01/07 09:09:52;;;;;;;11.45;7.75;;;;;;;;;;4946281;29;20040;-72
2022/01/07 09:12:19;;;;;;;12.95;7.18;;;;;;;;;;4950098;29;20075;-68
2022/01/07 09:14:46;;;;;;;10.50;6.60;;;;;;;;;;4934162;29;20048;-69
2022/01/07 09:17:12;;;;;;;11.82;6.75;;;;;;;;;;4945606;29;20574;-75
2022/01/07 09:19:39;;;;;;;9.75;6.32;;;;;;;;;;4940314;29;20079;-68
2022/01/07 09:22:06;;;;;;;10.60;6.10;;;;;;;;;;4942800;29;20055;-68
2022/01/07 09:24:33;;;;;;;8.43;6.10;;;;;;;;;;4938429;29;20084;-68
2022/01/07 09:27:00;;;;;;;10.65;6.43;;;;;;;;;;4945256;29;20107;-69
2022/01/07 09:29:27;;;;;;;8.18;5.70;;;;;;;;;;4942726;29;20048;-67
2022/01/07 09:31:55;;;;;;;11.15;6.03;;;;;;;;;;4943705;29;20115;-68
2022/01/07 09:34:22;;;;;;;10.57;6.50;;;;;;;;;;4939938;29;20056;-68
2022/01/07 09:36:56;;;;;;;8.02;5.20;;;;;;;;;;4939306;29;20107;-69
2022/01/07 09:39:22;;;;;;;11.15;6.75;;;;;;;;;;4940729;29;20044;-68
2022/01/07 09:41:49;;;;;;;10.63;7.10;;;;;;;;;;4939908;29;20111;-69
2022/01/07 09:44:15;;;;;;;10.65;6.20;;;;;;;;;;4934973;29;20052;-67
2022/01/07 09:46:43;;;;;;;8.30;6.18;;;;;;;;;;4920180;29;20056;-66
2022/01/07 09:49:10;;;;;;;10.77;6.10;;;;;;;;;;4924881;29;20055;-66
2022/01/07 09:51:38;;;;;;;9.43;5.53;;;;;;;;;;4919495;29;20048;-66
2022/01/07 09:54:06;;;;;;;10.02;5.63;;;;;;;;;;4923243;29;20491;-66
2022/01/07 09:56:32;;;;;;;14.18;6.45;;;;;;;;;;4920625;29;20183;-66
2022/01/07 09:59:01;;;;;;;9.27;6.00;;;;;;;;;;4923056;29;20503;-66
2022/01/07 10:01:28;;;;;;;10.05;6.43;;;;;;;;;;4921303;29;20060;-67
2022/01/07 10:03:56;;;;;;;11.63;6.43;;;;;;;;;;4922828;29;20054;-66
2022/01/07 10:06:24;;;;;;;8.27;6.10;;;;;;;;;;4922261;29;20110;-67
2022/01/07 10:09:07;;;;;;;9.30;6.13;;;;;;;;;;4923322;29;20503;-67
2022/01/07 10:11:34;;;;;;;;;;;;;;;;;;4932898;29;20134;-68
2022/01/07 10:14:17;;;;;;;9.93;6.45;;;;;;;;;;4927966;29;19978;-68
2022/01/07 10:16:54;;;;;;;8.15;6.22;;;;;;;;;;4928778;29;20104;-67
2022/01/07 10:19:41;;;;;;;10.43;5.63;;;;;;;;;;4929940;29;20078;-68
2022/01/07 10:22:11;;;;;;;8.93;6.00;;;;;;;;;;4933202;29;20055;-68
2022/01/07 10:25:02;;;;;;;10.80;6.50;;;;;;;;;;4933419;29;20060;-68
2022/01/07 10:27:38;;;;;;;10.35;6.93;;;;;;;;;;4933833;29;20060;-68
2022/01/07 10:30:11;;;;;;;9.68;6.40;;;;;;;;;;4931801;29;20084;-68
2022/01/07 10:32:38;;;;;;;9.93;6.40;;;;;;;;;;4937138;29;20106;-67
2022/01/07 10:35:18;;;;;;;9.10;5.93;;;;;;;;;;4931030;29;20092;-68
2022/01/07 10:37:49;;;;;;;12.07;6.25;;;;;;;;;;4934470;29;20114;-68
2022/01/07 10:40:20;;;;;;;9.93;6.03;;;;;;;;;;4931603;29;20051;-66
2022/01/07 10:42:47;;;;;;;12.82;7.22;;;;;;;;;;4923336;29;20052;-71
2022/01/07 10:45:14;;;;;;;9.93;6.57;;;;;;;;;;4926155;29;20146;-67
2022/01/07 10:47:40;;;;;;;9.40;5.85;;;;;;;;;;4924773;29;20048;-68
2022/01/07 10:50:14;;;;;;;10.88;7.38;;;;;;;;;;4926340;29;20047;-66
2022/01/07 10:52:41;;;;;;;9.25;5.88;;;;;;;;;;4924125;29;20048;-67
2022/01/07 10:55:10;;;;;;;12.13;7.28;;;;;;;;;;4924627;29;20107;-66
2022/01/07 10:57:44;;;;;;;9.27;6.55;;;;;;;;;;4924653;29;20047;-66
2022/01/07 11:00:13;;;;;;;11.45;7.43;;;;;;;;;;4923857;29;20099;-67
2022/01/07 11:02:40;;;;;;;9.45;6.55;;;;;;;;;;4929061;29;20051;-67
2022/01/07 11:05:08;;;;;;;12.48;6.97;;;;;;;;;;4928562;29;20559;-67
2022/01/07 11:07:35;;;;;;;12.35;7.10;;;;;;;;;;4948093;29;20048;-68
2022/01/07 11:10:04;;;;;;;14.55;7.65;;;;;;;;;;4945536;29;20047;-71
2022/01/07 11:12:37;;;;;;;14.10;8.50;;;;;;;;;;4942682;29;20052;-73
2022/01/07 11:15:06;;;;;;;13.85;6.85;;;;;;;;;;4949271;29;20108;-72
2022/01/07 11:17:32;;;;;;;13.40;7.43;;;;;;;;;;4925610;29;20851;-73
2022/01/07 11:20:01;;;;;;;13.75;7.72;;;;;;;;;;4930684;29;20104;-66
2022/01/07 11:22:28;;;;;;;11.85;7.63;;;;;;;;;;4925069;29;20503;-70
2022/01/07 11:25:06;;;;;;;14.70;7.70;;;;;;;;;;4927691;29;20048;-71
2022/01/07 11:27:52;;;;;;;12.07;7.75;;;;;;;;;;4922915;29;20047;-70
2022/01/07 11:30:19;;;;;;;14.60;8.43;;;;;;;;;;4924623;29;20052;-71
2022/01/07 11:32:47;;;;;;;13.80;7.85;;;;;;;;;;4926280;29;20466;-72
2022/01/07 11:35:17;;;;;;;14.43;7.45;;;;;;;;;;4921433;29;20060;-66
2022/01/07 11:37:46;;;;;;;14.65;7.88;;;;;;;;;;4920349;29;20052;-67
2022/01/07 11:40:28;;;;;;;12.00;7.20;;;;;;;;;;4922001;29;20052;-66
2022/01/07 11:42:56;;;;;;;14.35;7.28;;;;;;;;;;4919938;29;20583;-67
2022/01/07 11:45:27;;;;;;;14.18;7.90;;;;;;;;;;4926041;29;20463;-66
2022/01/07 11:47:58;;;;;;;11.15;7.15;;;;;;;;;;4922776;29;20044;-67
2022/01/07 11:50:25;;;;;;;13.00;8.40;;;;;;;;;;4919614;29;20068;-70
2022/01/07 11:52:57;;;;;;;13.27;7.60;;;;;;;;;;4924283;29;20091;-67
2022/01/07 11:55:24;;;;;;;11.55;7.80;;;;;;;;;;4920567;29;20468;-67
2022/01/07 11:57:55;;;;;;;12.10;7.35;;;;;;;;;;4921710;29;20095;-67
2022/01/07 12:00:50;;;;;;;11.50;6.38;;;;;;;;;;4927039;29;20051;-68
2022/01/07 12:03:42;;;;;;;12.38;7.25;;;;;;;;;;4922130;29;20059;-68
2022/01/07 12:06:24;;;;;;;11.38;6.05;;;;;;;;;;4945426;29;20058;-69
2022/01/07 12:09:03;;;;;;;14.40;6.93;;;;;;;;;;4924299;29;20048;-69
2022/01/07 12:11:38;;;;;;;9.88;6.55;;;;;;;;;;4926057;29;20055;-74
2022/01/07 12:14:18;;;;;;;10.55;6.28;;;;;;;;;;4925607;29;20533;-74
2022/01/07 12:16:55;;;;;;;12.10;6.63;;;;;;;;;;4922132;29;20052;-73
2022/01/07 12:19:28;;;;;;;10.80;6.85;;;;;;;;;;4908231;29;20052;-73
2022/01/07 12:21:57;;;;;;;8.85;5.70;;;;;;;;;;4927263;29;20048;-73
2022/01/07 12:24:25;;;;;;;9.32;6.63;;;;;;;;;;4905372;29;20115;-72
2022/01/07 12:27:13;;;;;;;13.98;7.25;;;;;;;;;;4923319;29;20488;-70
2022/01/07 12:29:42;;;;;;;12.75;6.63;;;;;;;;;;4923161;29;20048;-72
2022/01/07 12:32:11;;;;;;;8.77;5.97;;;;;;;;;;4921831;29;20048;-72
2022/01/07 12:34:43;;;;;;;11.15;6.75;;;;;;;;;;4924164;29;20511;-69
2022/01/07 12:37:11;;;;;;;10.18;6.32;;;;;;;;;;4924242;29;20075;-70
2022/01/07 12:39:41;;;;;;;8.70;6.38;;;;;;;;;;4922381;29;20123;-69
2022/01/07 12:42:10;;;;;;;8.73;6.05;;;;;;;;;;4925216;29;20056;-69
2022/01/07 12:44:38;;;;;;;11.25;6.60;;;;;;;;;;4928114;29;20104;-70
2022/01/07 12:47:08;;;;;;;8.57;5.72;;;;;;;;;;4925196;29;20420;-67
2022/01/07 12:49:42;;;;;;;9.68;6.85;;;;;;;;;;4921044;29;20056;-67
2022/01/07 12:52:15;;;;;;;9.73;6.57;;;;;;;;;;4923817;29;20051;-68
2022/01/07 12:54:50;;;;;;;11.90;7.00;;;;;;;;;;4922296;29;20056;-67
2022/01/07 12:57:26;;;;;;;12.32;7.03;;;;;;;;;;4923790;29;20059;-71
2022/01/07 13:00:10;;;;;;;10.00;6.53;;;;;;;;;;4925234;29;20055;-70
2022/01/07 13:02:41;;;;;;;10.05;6.00;;;;;;;;;;4928680;29;20047;-71
2022/01/07 13:05:12;;;;;;;8.50;5.40;;;;;;;;;;4923350;29;20059;-69
2022/01/07 13:07:41;;;;;;;10.75;6.28;;;;;;;;;;4920514;29;20051;-68
2022/01/07 13:10:08;;;;;;;10.15;5.93;;;;;;;;;;4921374;29;20467;-67
2022/01/07 13:12:36;;;;;;;10.73;5.72;;;;;;;;;;4920679;29;20077;-65
2022/01/07 13:15:04;;;;;;;8.32;5.53;;;;;;;;;;4930495;29;20052;-66
2022/01/07 13:17:31;;;;;;;9.40;5.55;;;;;;;;;;4922901;29;20134;-64
2022/01/07 13:19:57;;;;;;;11.25;6.65;;;;;;;;;;4927760;29;20080;-66
2022/01/07 13:22:26;;;;;;;10.63;6.50;;;;;;;;;;4922814;29;20482;-67
2022/01/07 13:24:53;;;;;;;7.10;5.28;;;;;;;;;;4925665;29;20124;-64
2022/01/07 13:27:20;;;;;;;8.40;5.95;;;;;;;;;;4922133;29;20110;-66
2022/01/07 13:29:47;;;;;;;10.23;6.88;;;;;;;;;;4919941;29;20499;-65
2022/01/07 13:32:20;;;;;;;9.52;6.00;;;;;;;;;;4919527;29;20060;-68
2022/01/07 13:34:47;;;;;;;10.25;5.95;;;;;;;;;;4917657;29;20092;-66
2022/01/07 13:37:15;;;;;;;10.45;5.90;;;;;;;;;;4918349;29;20047;-65
2022/01/07 13:39:45;;;;;;;10.00;5.75;;;;;;;;;;4917941;29;20472;-66
2022/01/07 13:42:23;;;;;;;13.52;6.80;;;;;;;;;;4920100;29;20107;-65
2022/01/07 13:45:20;;;;;;;12.18;5.35;;;;;;;;;;4920059;29;20064;-66
2022/01/07 13:47:48;;;;;;;9.95;5.70;;;;;;;;;;4919200;29;20051;-65
2022/01/07 13:50:27;;;;;;;9.93;5.75;;;;;;;;;;4926492;28;20111;-67
2022/01/07 13:52:54;;;;;;;7.85;5.47;;;;;;;;;;4922410;29;20048;-65
2022/01/07 13:55:31;;;;;;;5.65;4.15;;;;;;;;;;4919184;29;20052;-65
2022/01/07 13:58:13;;;;;;;7.80;4.22;;;;;;;;;;4925270;29;20055;-65
2022/01/07 14:00:41;;;;;;;7.63;4.78;;;;;;;;;;4928483;29;20056;-65
2022/01/07 14:03:09;;;;;;;8.45;4.07;;;;;;;;;;4924390;29;20143;-65
2022/01/07 14:05:36;;;;;;;6.72;4.03;;;;;;;;;;4923928;29;20051;-65
2022/01/07 14:08:09;;;;;;;8.70;4.63;;;;;;;;;;4925166;29;20056;-68
2022/01/07 14:10:41;;;;;;;10.30;5.20;;;;;;;;;;4929603;29;20054;-65
2022/01/07 14:13:19;;;;;;;10.50;4.55;;;;;;;;;;4928551;29;20052;-65
2022/01/07 14:15:49;;;;;;;8.93;4.22;;;;;;;;;;4927440;29;20135;-65
2022/01/07 14:18:18;;;;;;;10.95;4.18;;;;;;;;;;4926597;29;20566;-65
2022/01/07 14:20:52;;;;;;;7.25;3.40;;;;;;;;;;4927548;29;20095;-65
2022/01/07 14:23:19;;;;;;;9.75;4.00;;;;;;;;;;4925625;29;20435;-66
2022/01/07 14:25:46;;;;;;;8.65;3.50;;;;;;;;;;4925431;29;20495;-65
2022/01/07 14:28:13;;;;;;;8.35;4.00;;;;;;;;;;4923578;29;20052;-65
2022/01/07 14:30:41;;;;;;;6.93;3.80;;;;;;;;;;4925333;29;20047;-66
2022/01/07 14:33:08;;;;;;;6.18;3.15;;;;;;;;;;4924146;29;20111;-67
2022/01/07 14:35:35;;;;;;;6.78;3.05;;;;;;;;;;4929341;29;20103;-65
2022/01/07 14:38:01;;;;;;;4.68;2.95;;;;;;;;;;4925443;29;20099;-66
2022/01/07 14:40:28;;;;;;;6.10;2.78;;;;;;;;;;4932509;29;20110;-66
2022/01/07 14:42:55;;;;;;;4.07;2.70;;;;;;;;;;4925644;29;20649;-66
2022/01/07 14:45:22;;;;;;;4.80;2.50;;;;;;;;;;4926914;29;20055;-66
2022/01/07 14:47:48;;;;;;;7.03;3.80;;;;;;;;;;4927740;29;20106;-66